Time;durP1;ratioP1;P1;durP2;ratioP2;P2;SDS_P1;SDS_P2;PMS_P1;PMS_P2;Temp;Humidity;BMP_temperature;BMP_pressure;BME280_temperature;BME280_humidity;BME280_pressure;Samples;Min_cycle;Max_cycle;Signal;HPM_P1;HPM_P2
2023/12/30 00:01:49;;;;;;;6.47;1.30;;;9.20;99.90;;;;;;5051297;28;20033;-53
2023/12/30 00:04:14;;;;;;;7.50;1.80;;;9.20;99.90;;;;;;5051262;28;20063;-55
2023/12/30 00:06:40;;;;;;;9.53;2.07;;;9.20;99.90;;;;;;5033579;28;20436;-55
2023/12/30 00:09:06;;;;;;;8.73;1.60;;;9.20;99.90;;;;;;5050809;28;20036;-54
2023/12/30 00:11:32;;;;;;;6.97;1.87;;;9.20;99.90;;;;;;5051096;28;20021;-52
2023/12/30 00:13:57;;;;;;;9.60;2.40;;;9.20;99.90;;;;;;5051143;28;20367;-57
2023/12/30 00:16:23;;;;;;;7.57;1.90;;;9.20;99.90;;;;;;5051194;28;20503;-51
2023/12/30 00:18:48;;;;;;;7.87;1.70;;;9.20;99.90;;;;;;5050814;28;20028;-55
2023/12/30 00:21:19;;;;;;;8.40;1.33;;;9.20;99.90;;;;;;5051004;28;20032;-54
2023/12/30 00:23:44;;;;;;;11.10;1.37;;;9.20;99.90;;;;;;5050950;28;20029;-56
2023/12/30 00:26:20;;;;;;;5.30;1.20;;;9.20;99.90;;;;;;5051062;28;20044;-56
2023/12/30 00:28:49;;;;;;;27.55;10.13;;;9.20;99.90;;;;;;5050664;28;20401;-55
2023/12/30 00:31:26;;;;;;;8.30;2.20;;;9.20;99.90;;;;;;5035669;28;20029;-55
2023/12/30 00:33:54;;;;;;;7.00;1.40;;;9.20;99.90;;;;;;5054678;28;20497;-52
2023/12/30 00:36:19;;;;;;;5.77;1.00;;;9.20;99.90;;;;;;5037005;28;20508;-56
2023/12/30 00:38:45;;;;;;;7.70;1.30;;;9.10;99.90;;;;;;5020054;28;20029;-52
2023/12/30 00:41:13;;;;;;;6.97;1.23;;;9.00;99.90;;;;;;5054387;28;20021;-50
2023/12/30 00:43:41;;;;;;;7.77;1.77;;;9.00;99.90;;;;;;5036411;28;20040;-55
2023/12/30 00:46:08;;;;;;;9.52;2.20;;;9.10;99.90;;;;;;5036549;28;20464;-56
2023/12/30 00:48:34;;;;;;;10.83;2.10;;;9.00;99.90;;;;;;5019543;28;20064;-54
2023/12/30 00:51:03;;;;;;;7.80;1.90;;;9.00;99.90;;;;;;5036354;28;20056;-51
2023/12/30 00:53:29;;;;;;;7.65;1.83;;;9.00;99.90;;;;;;5054207;28;20470;-54
2023/12/30 00:55:56;;;;;;;10.20;2.30;;;8.90;99.90;;;;;;5054417;28;20036;-54
2023/12/30 00:58:21;;;;;;;10.10;2.73;;;8.90;99.90;;;;;;5036237;28;20401;-55
2023/12/30 01:00:49;;;;;;;7.10;1.70;;;8.90;99.90;;;;;;5036135;28;20033;-54
2023/12/30 01:03:14;;;;;;;9.03;2.30;;;8.90;99.90;;;;;;5035896;28;20033;-54
2023/12/30 01:05:40;;;;;;;13.23;2.33;;;8.90;99.90;;;;;;5036126;28;20094;-55
2023/12/30 01:08:06;;;;;;;9.50;2.43;;;8.80;99.90;;;;;;5035989;28;20485;-55
2023/12/30 01:10:31;;;;;;;9.43;2.00;;;8.80;99.90;;;;;;5035986;28;20033;-52
2023/12/30 01:12:57;;;;;;;9.00;1.70;;;8.70;99.90;;;;;;5035987;28;20103;-54
2023/12/30 01:15:22;;;;;;;4.43;1.43;;;8.70;99.90;;;;;;5053929;28;20040;-56
2023/12/30 01:17:48;;;;;;;13.70;2.07;;;8.60;99.90;;;;;;5035760;28;20040;-55
2023/12/30 01:20:14;;;;;;;5.80;1.37;;;8.60;99.90;;;;;;5035724;28;20028;-55
2023/12/30 01:22:39;;;;;;;9.33;2.03;;;8.60;99.90;;;;;;5053573;28;20021;-55
2023/12/30 01:25:06;;;;;;;9.53;1.80;;;8.60;99.90;;;;;;5053732;28;20017;-55
2023/12/30 01:27:31;;;;;;;6.97;2.23;;;8.50;99.90;;;;;;5035781;28;20056;-55
2023/12/30 01:29:57;;;;;;;7.90;1.47;;;8.50;99.90;;;;;;5035510;28;20540;-55
2023/12/30 01:32:22;;;;;;;5.37;1.17;;;8.50;99.90;;;;;;5035468;28;20039;-51
2023/12/30 01:34:48;;;;;;;5.27;1.20;;;8.50;99.90;;;;;;5035550;28;20033;-54
2023/12/30 01:37:14;;;;;;;6.13;1.00;;;8.50;99.90;;;;;;5035488;28;20064;-51
2023/12/30 01:39:40;;;;;;;8.73;1.43;;;8.40;99.90;;;;;;5053149;28;20559;-54
2023/12/30 01:42:05;;;;;;;6.17;1.30;;;8.40;99.90;;;;;;5035172;28;20116;-55
2023/12/30 01:44:31;;;;;;;5.43;1.13;;;8.40;99.90;;;;;;5035401;28;20033;-53
2023/12/30 01:46:58;;;;;;;8.70;1.10;;;8.40;99.90;;;;;;5053224;28;20501;-54
2023/12/30 01:49:24;;;;;;;9.00;1.27;;;8.40;99.90;;;;;;5052857;28;20051;-53
2023/12/30 01:51:51;;;;;;;5.70;1.20;;;8.40;99.90;;;;;;5053079;28;20021;-54
2023/12/30 01:54:17;;;;;;;8.70;1.50;;;8.40;99.90;;;;;;5035286;28;20052;-54
2023/12/30 01:56:44;;;;;;;5.13;0.90;;;8.40;99.90;;;;;;5035239;28;20032;-54
2023/12/30 01:59:13;;;;;;;6.37;1.60;;;8.40;99.90;;;;;;5035021;28;20033;-52
2023/12/30 02:01:40;;;;;;;;;;;8.40;99.90;;;;;;5035473;28;20055;-55
2023/12/30 02:04:05;;;;;;;4.50;0.60;;;8.40;99.90;;;;;;5052945;28;20336;-55
2023/12/30 02:06:31;;;;;;;7.10;1.00;;;8.40;99.90;;;;;;5052838;28;20063;-54
2023/12/30 02:08:57;;;;;;;6.47;1.10;;;8.40;99.90;;;;;;5034603;28;20033;-52
2023/12/30 02:11:22;;;;;;;2.70;1.20;;;8.40;99.90;;;;;;5052668;28;20028;-53
2023/12/30 02:13:48;;;;;;;4.87;1.10;;;8.40;99.90;;;;;;5052729;28;20033;-53
2023/12/30 02:16:14;;;;;;;6.33;1.20;;;8.50;99.90;;;;;;5034795;28;20059;-52
2023/12/30 02:18:40;;;;;;;6.63;2.20;;;8.50;99.90;;;;;;5034485;28;20029;-50
2023/12/30 02:21:05;;;;;;;5.30;1.43;;;8.50;99.90;;;;;;5052539;28;20067;-55
2023/12/30 02:23:31;;;;;;;7.87;1.70;;;8.50;99.90;;;;;;5052577;28;20112;-50
2023/12/30 02:25:56;;;;;;;7.57;1.90;;;8.40;99.90;;;;;;5052546;28;20036;-52
2023/12/30 02:28:22;;;;;;;9.10;1.87;;;8.40;99.90;;;;;;5052240;28;20033;-55
2023/12/30 02:30:47;;;;;;;5.93;1.57;;;8.50;99.90;;;;;;5052259;28;20028;-50
2023/12/30 02:33:13;;;;;;;10.03;2.80;;;8.50;99.90;;;;;;5034569;28;20385;-50
2023/12/30 02:35:42;;;;;;;9.10;2.53;;;8.60;99.90;;;;;;5034421;28;20029;-53
2023/12/30 02:38:08;;;;;;;9.98;2.30;;;8.60;99.90;;;;;;5052223;28;20474;-54
2023/12/30 02:40:34;;;;;;;9.60;2.70;;;8.50;99.90;;;;;;5034283;28;20036;-53
2023/12/30 02:42:59;;;;;;;9.80;2.73;;;8.50;99.90;;;;;;5034143;28;20527;-52
2023/12/30 02:45:25;;;;;;;7.60;1.70;;;8.50;99.90;;;;;;5052056;28;20482;-51
2023/12/30 02:47:51;;;;;;;11.40;2.53;;;8.50;99.90;;;;;;5052052;28;20033;-52
2023/12/30 02:50:16;;;;;;;9.90;2.40;;;8.40;99.90;;;;;;5051918;28;20036;-51
2023/12/30 02:52:42;;;;;;;7.37;2.03;;;8.40;99.90;;;;;;5033480;28;20075;-50
2023/12/30 02:55:08;;;;;;;7.37;2.07;;;8.40;99.90;;;;;;5034164;28;20419;-54
2023/12/30 02:57:33;;;;;;;8.57;2.07;;;8.40;99.90;;;;;;5034159;28;20036;-52
2023/12/30 02:59:59;;;;;;;9.80;2.50;;;8.50;99.90;;;;;;5051661;28;20063;-56
2023/12/30 03:02:24;;;;;;;12.80;2.57;;;8.50;99.90;;;;;;5033891;28;20021;-53
2023/12/30 03:04:54;;;;;;;8.43;2.30;;;8.50;99.90;;;;;;5051960;28;20040;-54
2023/12/30 03:07:21;;;;;;;8.30;2.03;;;8.50;99.90;;;;;;5033888;28;20025;-54
2023/12/30 03:09:46;;;;;;;8.40;2.23;;;8.60;99.90;;;;;;5033622;28;20040;-51
2023/12/30 03:12:14;;;;;;;7.83;2.03;;;8.60;99.90;;;;;;5033897;28;20032;-53
2023/12/30 03:14:40;;;;;;;6.67;1.67;;;8.60;99.90;;;;;;5033907;28;20235;-52
2023/12/30 03:17:06;;;;;;;7.37;1.70;;;8.60;99.90;;;;;;5051741;28;20029;-56
2023/12/30 03:19:31;;;;;;;9.07;1.97;;;8.60;99.90;;;;;;5051390;28;20029;-54
2023/12/30 03:21:57;;;;;;;4.73;1.97;;;8.60;99.90;;;;;;5033687;28;20094;-53
2023/12/30 03:24:23;;;;;;;10.73;2.10;;;8.60;99.90;;;;;;5051652;28;20032;-54
2023/12/30 03:26:48;;;;;;;10.83;2.17;;;8.60;99.90;;;;;;5051539;28;20111;-53
2023/12/30 03:29:14;;;;;;;12.60;2.37;;;8.60;99.90;;;;;;5033378;28;20039;-52
2023/12/30 03:31:41;;;;;;;12.37;2.33;;;8.60;99.90;;;;;;5051489;28;20025;-53
2023/12/30 03:34:07;;;;;;;7.57;1.60;;;8.60;99.90;;;;;;5051494;28;20370;-53
2023/12/30 03:36:32;;;;;;;7.47;1.80;;;8.60;99.90;;;;;;5017197;28;20032;-52
2023/12/30 03:38:58;;;;;;;8.57;1.57;;;8.60;99.90;;;;;;5051292;28;20508;-55
2023/12/30 03:41:25;;;;;;;6.93;1.57;;;8.70;99.90;;;;;;5017228;28;20052;-55
2023/12/30 03:43:51;;;;;;;6.90;1.20;;;8.70;99.90;;;;;;5033585;28;20028;-56
2023/12/30 03:46:17;;;;;;;7.33;1.07;;;8.60;99.90;;;;;;5051488;28;20078;-54
2023/12/30 03:48:43;;;;;;;5.50;1.00;;;8.70;99.90;;;;;;5016776;28;20075;-53
2023/12/30 03:51:09;;;;;;;6.60;1.03;;;8.60;99.90;;;;;;5033473;28;20112;-53
2023/12/30 03:53:34;;;;;;;5.90;1.00;;;8.60;99.90;;;;;;5051373;28;20028;-52
2023/12/30 03:56:00;;;;;;;4.27;0.57;;;8.60;99.90;;;;;;5033458;28;20028;-52
2023/12/30 03:58:26;;;;;;;7.23;1.53;;;8.50;99.90;;;;;;5033520;28;20076;-51
2023/12/30 04:00:52;;;;;;;8.37;1.67;;;8.50;99.90;;;;;;5033350;28;20044;-53
2023/12/30 04:03:17;;;;;;;9.60;1.40;;;8.50;99.90;;;;;;5051388;28;20037;-52
2023/12/30 04:05:43;;;;;;;6.83;1.30;;;8.50;99.90;;;;;;5036904;28;20043;-53
2023/12/30 04:08:09;;;;;;;6.77;1.57;;;8.50;99.90;;;;;;5037370;28;20508;-54
2023/12/30 04:10:35;;;;;;;6.20;1.13;;;8.40;99.90;;;;;;5037084;28;20025;-54
2023/12/30 04:13:00;;;;;;;7.60;1.20;;;8.30;99.90;;;;;;5037058;28;20507;-53
2023/12/30 04:15:26;;;;;;;10.70;1.87;;;8.30;99.90;;;;;;5037027;28;20563;-55
2023/12/30 04:17:52;;;;;;;3.53;1.10;;;8.30;99.90;;;;;;5036971;28;20486;-54
2023/12/30 04:20:18;;;;;;;5.60;1.47;;;8.30;99.90;;;;;;5036798;28;20025;-54
2023/12/30 04:22:43;;;;;;;7.90;1.80;;;8.40;99.90;;;;;;5037089;28;20025;-55
2023/12/30 04:25:09;;;;;;;7.07;1.80;;;8.30;99.90;;;;;;5037127;28;20029;-51
2023/12/30 04:27:35;;;;;;;10.27;1.70;;;8.30;99.90;;;;;;5036819;28;20461;-54
2023/12/30 04:30:01;;;;;;;6.40;1.50;;;8.40;99.90;;;;;;5036566;28;20029;-53
2023/12/30 04:32:27;;;;;;;9.93;1.60;;;8.40;99.90;;;;;;5036782;28;20393;-56
2023/12/30 04:34:53;;;;;;;10.67;1.70;;;8.40;99.90;;;;;;5036723;28;20549;-51
2023/12/30 04:37:19;;;;;;;7.20;2.30;;;8.40;99.90;;;;;;5036646;28;20131;-55
2023/12/30 04:39:45;;;;;;;13.20;2.00;;;8.40;99.90;;;;;;5036350;28;20029;-52
2023/12/30 04:42:12;;;;;;;8.50;2.00;;;8.40;99.90;;;;;;5036568;28;20035;-56
2023/12/30 04:44:38;;;;;;;12.10;2.17;;;8.40;99.90;;;;;;5036469;28;20060;-55
2023/12/30 04:47:04;;;;;;;7.03;1.67;;;8.50;99.90;;;;;;5036576;28;20061;-53
2023/12/30 04:49:30;;;;;;;9.80;2.10;;;8.50;99.90;;;;;;5036121;28;20508;-55
2023/12/30 04:51:56;;;;;;;7.63;1.40;;;8.40;99.90;;;;;;5036377;28;20039;-55
2023/12/30 04:54:22;;;;;;;10.03;1.93;;;8.40;99.90;;;;;;5036354;28;20505;-53
2023/12/30 04:56:48;;;;;;;9.27;2.20;;;8.40;99.90;;;;;;5036325;28;20029;-52
2023/12/30 04:59:14;;;;;;;8.83;1.20;;;8.40;99.90;;;;;;5036055;28;20498;-54
2023/12/30 05:01:40;;;;;;;3.90;1.17;;;8.30;99.90;;;;;;5054056;28;20390;-53
2023/12/30 05:04:06;;;;;;;4.20;0.77;;;8.20;99.90;;;;;;5036189;28;20036;-51
2023/12/30 05:06:32;;;;;;;6.03;1.00;;;8.20;99.90;;;;;;5036165;28;20036;-56
2023/12/30 05:09:00;;;;;;;5.63;1.30;;;8.20;99.90;;;;;;5053561;28;20033;-55
2023/12/30 05:11:26;;;;;;;10.97;1.30;;;8.20;99.90;;;;;;5053803;28;20025;-55
2023/12/30 05:13:51;;;;;;;8.40;1.33;;;8.30;99.90;;;;;;5053841;28;20029;-53
2023/12/30 05:16:17;;;;;;;3.83;0.70;;;8.30;99.90;;;;;;5053398;28;20028;-56
2023/12/30 05:18:43;;;;;;;8.60;1.63;;;8.20;99.90;;;;;;5035698;28;20390;-54
2023/12/30 05:21:14;;;;;;;9.57;1.30;;;8.20;99.90;;;;;;5053769;28;20136;-52
2023/12/30 05:23:40;;;;;;;5.80;1.50;;;8.10;99.90;;;;;;5053624;28;20566;-53
2023/12/30 05:26:06;;;;;;;12.17;1.30;;;8.10;99.90;;;;;;5053656;28;20037;-56
2023/12/30 05:28:32;;;;;;;9.53;1.83;;;8.10;99.90;;;;;;5053321;28;20036;-54
2023/12/30 05:30:57;;;;;;;4.80;1.00;;;8.20;99.90;;;;;;5019159;28;20033;-55
2023/12/30 05:33:23;;;;;;;9.03;1.20;;;8.20;99.90;;;;;;5053418;28;20087;-54
2023/12/30 05:35:49;;;;;;;14.73;1.43;;;8.20;99.90;;;;;;5053469;28;20036;-54
2023/12/30 05:38:15;;;;;;;7.13;1.50;;;8.20;99.90;;;;;;5035328;28;20025;-51
2023/12/30 05:40:40;;;;;;;6.10;1.30;;;8.20;99.90;;;;;;5053261;28;20040;-55
2023/12/30 05:43:06;;;;;;;7.03;1.50;;;8.10;99.90;;;;;;5053113;28;20033;-56
2023/12/30 05:45:32;;;;;;;8.93;2.50;;;8.00;99.90;;;;;;5053344;28;20033;-54
2023/12/30 05:47:57;;;;;;;8.30;2.00;;;8.10;99.90;;;;;;5053041;28;20033;-54
2023/12/30 05:50:23;;;;;;;8.13;2.10;;;8.00;99.90;;;;;;5053070;28;20021;-54
2023/12/30 05:52:49;;;;;;;9.10;2.00;;;8.00;99.90;;;;;;5053000;28;20505;-54
2023/12/30 05:55:14;;;;;;;7.60;1.37;;;8.00;99.90;;;;;;5053133;28;20032;-54
2023/12/30 05:57:40;;;;;;;6.57;1.40;;;7.90;99.90;;;;;;5052983;28;20501;-54
2023/12/30 06:00:08;;;;;;;5.90;1.50;;;7.90;99.90;;;;;;5052819;28;20077;-53
2023/12/30 06:02:38;;;;;;;8.40;1.57;;;7.90;99.90;;;;;;5052870;28;20040;-54
2023/12/30 06:05:04;;;;;;;7.83;1.90;;;8.00;99.90;;;;;;5052858;28;20496;-55
2023/12/30 06:07:29;;;;;;;5.37;1.43;;;8.00;99.90;;;;;;5052838;28;20039;-55
2023/12/30 06:09:55;;;;;;;5.27;1.50;;;8.10;99.90;;;;;;5052413;28;20033;-56
2023/12/30 06:12:20;;;;;;;6.10;1.40;;;8.10;99.90;;;;;;5052752;28;20414;-55
2023/12/30 06:14:46;;;;;;;10.07;2.40;;;8.10;99.90;;;;;;5052620;28;20021;-53
2023/12/30 06:17:12;;;;;;;7.07;1.20;;;8.20;99.90;;;;;;5052693;28;20113;-56
2023/12/30 06:19:37;;;;;;;6.10;1.23;;;8.20;99.90;;;;;;5052460;28;20059;-53
2023/12/30 06:22:03;;;;;;;10.33;1.20;;;8.20;99.90;;;;;;5052452;28;20397;-55
2023/12/30 06:24:29;;;;;;;7.93;1.43;;;8.20;99.90;;;;;;5052556;28;20494;-56
2023/12/30 06:26:54;;;;;;;5.73;0.97;;;8.30;99.90;;;;;;5052215;28;20115;-54
2023/12/30 06:29:20;;;;;;;14.33;2.27;;;8.30;99.90;;;;;;5033672;28;20033;-55
2023/12/30 06:31:46;;;;;;;7.40;1.60;;;8.30;99.90;;;;;;5052362;28;20029;-55
2023/12/30 06:34:11;;;;;;;7.70;1.67;;;8.30;99.90;;;;;;5052420;28;20035;-53
2023/12/30 06:36:38;;;;;;;10.97;1.60;;;8.20;99.90;;;;;;5052390;28;20063;-55
2023/12/30 06:39:05;;;;;;;9.10;1.40;;;8.20;99.90;;;;;;5052056;28;20542;-54
2023/12/30 06:41:30;;;;;;;5.63;1.13;;;8.20;99.90;;;;;;5052290;28;20078;-52
2023/12/30 06:43:56;;;;;;;5.73;1.27;;;8.30;99.90;;;;;;5052224;28;20041;-53
2023/12/30 06:46:22;;;;;;;7.70;1.40;;;8.30;99.90;;;;;;5052265;28;20021;-54
2023/12/30 06:48:47;;;;;;;8.43;1.93;;;8.30;99.90;;;;;;5051837;28;20398;-55
2023/12/30 06:51:13;;;;;;;5.10;1.20;;;8.40;99.90;;;;;;5052102;28;20119;-54
2023/12/30 06:53:39;;;;;;;8.10;1.13;;;8.30;99.90;;;;;;5052157;28;20123;-55
2023/12/30 06:56:08;;;;;;;9.77;1.87;;;8.30;99.90;;;;;;5052085;28;20033;-51
2023/12/30 06:58:34;;;;;;;5.75;1.15;;;8.30;99.90;;;;;;5051787;28;20401;-55
2023/12/30 07:00:59;;;;;;;8.77;1.00;;;8.20;99.90;;;;;;5051905;28;20043;-55
2023/12/30 07:03:25;;;;;;;5.70;1.30;;;8.30;99.90;;;;;;5051955;28;20033;-56
2023/12/30 07:05:50;;;;;;;9.90;1.33;;;8.20;99.90;;;;;;5051909;28;20043;-55
2023/12/30 07:08:16;;;;;;;11.17;1.23;;;8.20;99.90;;;;;;5051738;28;20040;-52
2023/12/30 07:10:42;;;;;;;9.10;1.20;;;8.20;99.90;;;;;;5034066;28;20025;-56
2023/12/30 07:13:08;;;;;;;13.83;5.07;;;8.20;99.90;;;;;;5051751;28;20036;-52
2023/12/30 07:15:34;;;;;;;7.93;1.70;;;8.20;99.90;;;;;;5051740;28;20029;-55
2023/12/30 07:18:00;;;;;;;14.37;1.50;;;8.20;99.90;;;;;;5051716;28;20117;-55
2023/12/30 07:20:26;;;;;;;6.17;1.20;;;8.30;99.90;;;;;;5051559;28;20032;-54
2023/12/30 07:22:53;;;;;;;11.50;1.63;;;8.20;99.90;;;;;;5051664;28;20036;-54
2023/12/30 07:25:19;;;;;;;10.83;1.50;;;8.20;99.90;;;;;;5051964;28;20025;-54
2023/12/30 07:27:45;;;;;;;6.47;1.17;;;8.10;99.90;;;;;;5051630;28;20063;-55
2023/12/30 07:30:10;;;;;;;9.50;1.83;;;8.20;99.90;;;;;;5051364;28;20393;-55
2023/12/30 07:32:37;;;;;;;7.53;1.20;;;8.10;99.90;;;;;;5033700;28;20401;-53
2023/12/30 07:35:05;;;;;;;3.50;1.00;;;8.10;99.90;;;;;;5051601;28;20068;-54
2023/12/30 07:37:32;;;;;;;9.13;1.27;;;8.20;99.90;;;;;;5051667;28;20033;-55
2023/12/30 07:39:57;;;;;;;7.60;1.57;;;8.20;99.90;;;;;;5054036;28;20446;-55
2023/12/30 07:42:23;;;;;;;4.87;1.10;;;8.20;99.90;;;;;;5055447;28;20025;-54
2023/12/30 07:44:49;;;;;;;3.67;1.10;;;8.20;99.90;;;;;;5055629;28;20029;-53
2023/12/30 07:47:14;;;;;;;5.37;1.30;;;8.20;99.90;;;;;;5055585;28;20059;-56
2023/12/30 07:49:40;;;;;;;9.73;1.67;;;8.20;99.90;;;;;;5055159;28;20043;-55
2023/12/30 07:52:05;;;;;;;10.13;1.63;;;8.20;99.90;;;;;;5055425;28;20048;-55
2023/12/30 07:54:31;;;;;;;6.70;0.70;;;8.20;99.90;;;;;;5055407;28;20035;-54
2023/12/30 07:56:56;;;;;;;8.30;1.13;;;8.20;99.90;;;;;;5055513;28;20071;-56
2023/12/30 07:59:22;;;;;;;7.10;1.57;;;8.30;99.90;;;;;;5055049;28;20032;-55
2023/12/30 08:01:48;;;;;;;7.23;1.30;;;8.20;99.90;;;;;;5055625;28;20454;-56
2023/12/30 08:04:13;;;;;;;7.93;1.53;;;8.30;99.90;;;;;;5055175;28;20082;-56
2023/12/30 08:06:40;;;;;;;5.87;1.20;;;8.30;99.90;;;;;;5055220;28;20060;-55
2023/12/30 08:09:06;;;;;;;10.07;1.63;;;8.40;99.90;;;;;;5054843;28;20051;-56
2023/12/30 08:11:35;;;;;;;6.10;1.73;;;8.40;99.90;;;;;;5037308;28;20033;-55
2023/12/30 08:14:00;;;;;;;6.30;1.30;;;8.40;99.90;;;;;;5037180;28;20036;-55
2023/12/30 08:16:26;;;;;;;6.20;1.53;;;8.40;99.90;;;;;;5055027;28;20398;-53
2023/12/30 08:18:52;;;;;;;5.60;1.40;;;8.40;99.90;;;;;;5054951;28;20029;-55
2023/12/30 08:21:17;;;;;;;10.30;1.90;;;8.40;99.90;;;;;;5054884;28;20107;-53
2023/12/30 08:23:43;;;;;;;10.47;2.03;;;8.50;99.90;;;;;;5055105;28;20035;-56
2023/12/30 08:26:08;;;;;;;8.73;2.20;;;8.40;99.90;;;;;;5054832;28;20080;-55
2023/12/30 08:28:34;;;;;;;10.73;2.23;;;8.40;99.90;;;;;;5054533;28;20029;-56
2023/12/30 08:31:01;;;;;;;5.80;2.13;;;8.50;99.90;;;;;;5054696;28;20060;-54
2023/12/30 08:33:27;;;;;;;8.53;2.10;;;8.50;99.90;;;;;;5054686;28;20036;-55
2023/12/30 08:35:53;;;;;;;12.23;2.97;;;8.50;99.90;;;;;;5054964;28;20033;-54
2023/12/30 08:38:18;;;;;;;10.70;2.30;;;8.50;99.90;;;;;;5054433;28;20115;-51
2023/12/30 08:40:44;;;;;;;10.93;2.57;;;8.50;99.90;;;;;;5054521;28;20545;-56
2023/12/30 08:43:11;;;;;;;7.40;1.60;;;8.60;99.90;;;;;;5054236;28;20029;-54
2023/12/30 08:45:37;;;;;;;8.17;1.70;;;8.60;99.90;;;;;;5054444;28;20032;-55
2023/12/30 08:48:04;;;;;;;9.33;2.23;;;8.60;99.90;;;;;;5054332;28;20496;-56
2023/12/30 08:50:33;;;;;;;3.97;1.20;;;8.60;99.90;;;;;;5053282;28;20044;-55
2023/12/30 08:52:58;;;;;;;6.70;1.58;;;8.60;99.90;;;;;;5054288;28;20028;-53
2023/12/30 08:55:24;;;;;;;4.93;1.10;;;8.60;99.90;;;;;;5054408;28;20108;-53
2023/12/30 08:57:50;;;;;;;5.00;1.40;;;8.60;99.90;;;;;;5054249;28;20032;-54
2023/12/30 09:00:16;;;;;;;7.53;1.50;;;8.60;99.90;;;;;;5053973;28;20021;-55
2023/12/30 09:02:46;;;;;;;9.33;2.07;;;8.60;99.90;;;;;;5054100;28;20025;-56
2023/12/30 09:05:18;;;;;;;11.70;1.80;;;8.60;99.90;;;;;;5054128;28;20029;-55
2023/12/30 09:07:48;;;;;;;11.80;2.13;;;8.70;99.90;;;;;;5054115;28;20129;-54
2023/12/30 09:10:18;;;;;;;12.57;2.70;;;8.70;99.90;;;;;;5053785;28;20132;-56
2023/12/30 09:12:45;;;;;;;10.63;2.20;;;8.70;99.90;;;;;;5053774;28;20037;-55
2023/12/30 09:15:10;;;;;;;10.57;1.93;;;8.70;99.90;;;;;;5054003;28;20040;-56
2023/12/30 09:17:36;;;;;;;12.77;2.10;;;8.70;99.90;;;;;;5053900;28;20025;-55
2023/12/30 09:20:01;;;;;;;14.47;3.13;;;8.70;99.90;;;;;;5053595;28;20103;-56
2023/12/30 09:22:27;;;;;;;11.90;2.30;;;8.70;99.90;;;;;;5053710;28;20040;-55
2023/12/30 09:24:54;;;;;;;8.60;1.77;;;8.70;99.90;;;;;;5053778;28;20032;-55
2023/12/30 09:27:19;;;;;;;9.83;1.60;;;8.70;99.90;;;;;;5053627;28;20047;-53
2023/12/30 09:29:45;;;;;;;13.90;1.97;;;8.70;99.90;;;;;;5053474;28;20037;-56
2023/12/30 09:32:11;;;;;;;10.10;2.20;;;8.60;99.90;;;;;;5053802;28;20108;-55
2023/12/30 09:34:36;;;;;;;14.00;2.13;;;8.60;99.90;;;;;;5053581;28;20469;-54
2023/12/30 09:37:02;;;;;;;6.20;1.80;;;8.60;99.90;;;;;;5053556;28;20017;-56
2023/12/30 09:39:27;;;;;;;7.10;1.80;;;8.70;99.90;;;;;;5053257;28;20412;-55
2023/12/30 09:41:53;;;;;;;5.83;2.00;;;8.70;99.90;;;;;;5053286;28;20037;-53
2023/12/30 09:44:22;;;;;;;9.57;1.43;;;8.70;99.90;;;;;;5035556;28;20032;-56
2023/12/30 09:46:50;;;;;;;9.57;1.83;;;8.70;99.90;;;;;;5053718;28;20124;-53
2023/12/30 09:49:16;;;;;;;11.13;1.50;;;8.80;99.90;;;;;;5053053;28;20029;-55
2023/12/30 09:51:42;;;;;;;10.43;1.90;;;8.80;99.90;;;;;;5053200;28;20800;-55
2023/12/30 09:54:07;;;;;;;7.90;1.23;;;8.80;99.90;;;;;;5053178;28;20067;-56
2023/12/30 09:56:33;;;;;;;6.90;2.33;;;8.80;99.90;;;;;;5053229;28;20505;-50
2023/12/30 09:59:00;;;;;;;7.63;1.67;;;8.80;99.90;;;;;;5052862;28;20033;-55
2023/12/30 10:01:27;;;;;;;6.50;1.80;;;8.80;99.90;;;;;;5053041;28;20029;-55
2023/12/30 10:03:52;;;;;;;9.17;1.70;;;8.90;99.90;;;;;;5052929;28;20039;-55
2023/12/30 10:06:23;;;;;;;7.30;2.03;;;9.00;99.90;;;;;;5052985;28;20127;-55
2023/12/30 10:08:49;;;;;;;8.07;2.20;;;9.00;99.90;;;;;;5052663;28;20076;-56
2023/12/30 10:11:15;;;;;;;11.50;2.53;;;9.00;99.90;;;;;;5052701;28;20033;-56
2023/12/30 10:13:41;;;;;;;7.20;1.90;;;9.10;99.90;;;;;;5052863;28;20068;-54
2023/12/30 10:16:08;;;;;;;10.33;2.40;;;9.10;99.90;;;;;;5052857;28;20056;-54
2023/12/30 10:18:36;;;;;;;8.03;2.50;;;9.20;99.90;;;;;;5052490;28;20036;-55
2023/12/30 10:21:03;;;;;;;8.30;2.20;;;9.20;99.90;;;;;;5052680;28;20033;-56
2023/12/30 10:23:31;;;;;;;8.10;2.60;;;9.20;99.90;;;;;;5052645;28;20375;-55
2023/12/30 10:25:57;;;;;;;16.13;2.50;;;9.20;99.90;;;;;;5052547;28;20037;-56
2023/12/30 10:28:22;;;;;;;8.47;1.80;;;9.30;99.90;;;;;;5052328;28;20481;-56
2023/12/30 10:30:59;;;;;;;12.43;2.97;;;9.30;99.90;;;;;;5052418;28;20037;-54
2023/12/30 10:33:25;;;;;;;9.63;2.10;;;9.40;99.90;;;;;;5052584;28;20060;-55
2023/12/30 10:35:51;;;;;;;9.30;2.07;;;9.40;99.90;;;;;;5052691;28;20102;-54
2023/12/30 10:38:18;;;;;;;7.30;1.70;;;9.40;99.90;;;;;;5052163;28;20029;-50
2023/12/30 10:40:44;;;;;;;10.60;2.03;;;9.40;99.90;;;;;;5052220;28;20025;-55
2023/12/30 10:43:10;;;;;;;9.60;2.00;;;9.40;99.90;;;;;;5052246;28;20501;-54
2023/12/30 10:45:36;;;;;;;7.77;1.97;;;9.50;99.90;;;;;;5052346;28;20029;-55
2023/12/30 10:48:04;;;;;;;14.97;2.77;;;9.60;99.90;;;;;;5052133;28;20040;-55
2023/12/30 10:50:32;;;;;;;14.63;2.03;;;9.70;99.90;;;;;;5052094;28;20381;-54
2023/12/30 10:53:02;;;;;;;12.03;2.53;;;9.70;99.90;;;;;;5052091;28;20033;-55
2023/12/30 10:55:32;;;;;;;10.40;2.27;;;9.80;99.90;;;;;;5052110;28;20424;-54
2023/12/30 10:58:16;;;;;;;6.43;2.20;;;9.80;99.90;;;;;;5052500;28;20044;-51
2023/12/30 11:00:43;;;;;;;8.57;2.37;;;9.70;99.90;;;;;;5052061;28;20025;-55
2023/12/30 11:03:09;;;;;;;11.13;2.13;;;9.70;99.90;;;;;;5051891;28;20116;-55
2023/12/30 11:05:47;;;;;;;10.97;2.30;;;9.70;99.90;;;;;;5052036;28;20052;-54
2023/12/30 11:08:13;;;;;;;14.03;4.13;;;9.80;99.90;;;;;;5051763;28;20033;-54
2023/12/30 11:10:38;;;;;;;8.63;2.33;;;9.80;99.90;;;;;;5051746;28;20087;-54
2023/12/30 11:13:07;;;;;;;10.67;2.60;;;9.80;99.90;;;;;;5051721;28;20029;-55
2023/12/30 11:15:32;;;;;;;9.10;2.60;;;9.90;99.90;;;;;;5051449;28;20374;-53
2023/12/30 11:17:59;;;;;;;9.37;2.80;;;9.90;99.90;;;;;;5033871;28;20086;-54
2023/12/30 11:20:27;;;;;;;10.67;2.70;;;9.90;99.90;;;;;;5051612;28;20017;-54
2023/12/30 11:22:54;;;;;;;10.63;1.83;;;10.00;99.90;;;;;;5051644;28;20021;-55
2023/12/30 11:25:20;;;;;;;11.13;2.83;;;9.90;99.90;;;;;;5051740;28;20171;-55
2023/12/30 11:27:53;;;;;;;7.07;1.70;;;9.90;99.90;;;;;;5051752;28;20406;-55
2023/12/30 11:30:26;;;;;;;15.07;2.43;;;10.00;99.90;;;;;;5051426;28;20033;-55
2023/12/30 11:32:54;;;;;;;14.27;2.23;;;9.90;99.90;;;;;;5051606;28;20082;-55
2023/12/30 11:35:20;;;;;;;6.88;2.42;;;10.00;99.90;;;;;;5051867;28;20457;-55
2023/12/30 11:37:52;;;;;;;10.73;2.73;;;9.90;99.90;;;;;;5051597;28;20029;-53
2023/12/30 11:40:19;;;;;;;12.40;2.57;;;10.00;99.90;;;;;;5051383;28;20126;-55
2023/12/30 11:42:45;;;;;;;9.00;2.53;;;10.10;99.90;;;;;;5051356;28;20033;-55
2023/12/30 11:45:10;;;;;;;11.90;2.87;;;10.10;99.90;;;;;;5051575;28;20378;-55
2023/12/30 11:47:37;;;;;;;7.60;2.70;;;10.20;99.90;;;;;;5051555;28;20064;-54
2023/12/30 11:50:09;;;;;;;11.33;2.40;;;10.30;99.90;;;;;;5051291;28;20036;-55
2023/12/30 11:52:37;;;;;;;9.50;2.07;;;10.30;99.90;;;;;;5051401;28;20052;-53
2023/12/30 11:55:03;;;;;;;11.30;2.10;;;10.40;99.90;;;;;;5051500;28;20496;-54
2023/12/30 11:57:33;;;;;;;8.80;1.70;;;10.40;99.90;;;;;;5051338;28;20032;-54
2023/12/30 11:59:58;;;;;;;10.38;2.15;;;10.40;99.90;;;;;;5051234;28;20478;-53
2023/12/30 12:02:25;;;;;;;15.50;3.00;;;10.50;99.90;;;;;;5051294;28;20035;-53
2023/12/30 12:04:50;;;;;;;7.17;1.93;;;10.50;99.90;;;;;;5051365;28;20079;-56
2023/12/30 12:07:16;;;;;;;11.83;1.87;;;10.50;99.90;;;;;;5051344;28;20057;-54
2023/12/30 12:09:43;;;;;;;8.50;1.80;;;10.50;99.90;;;;;;5050947;28;20482;-53
2023/12/30 12:12:10;;;;;;;7.00;1.67;;;10.40;99.90;;;;;;5051227;28;20098;-55
2023/12/30 12:14:36;;;;;;;8.27;1.30;;;10.40;99.90;;;;;;5051300;28;20444;-55
2023/12/30 12:17:08;;;;;;;5.87;1.10;;;10.50;99.90;;;;;;5051338;28;20136;-55
2023/12/30 12:19:36;;;;;;;9.63;1.30;;;10.50;99.90;;;;;;5033168;28;20052;-54
2023/12/30 12:22:01;;;;;;;5.27;1.00;;;10.50;99.90;;;;;;5051202;28;20029;-53
2023/12/30 12:24:27;;;;;;;5.63;1.30;;;10.60;99.90;;;;;;5051063;28;20427;-53
2023/12/30 12:26:53;;;;;;;4.97;1.80;;;10.70;99.90;;;;;;5053348;28;20508;-52
2023/12/30 12:29:20;;;;;;;4.10;1.40;;;10.70;99.90;;;;;;5054521;28;20037;-55
2023/12/30 12:31:46;;;;;;;10.13;2.13;;;10.70;99.90;;;;;;5036978;28;20029;-52
2023/12/30 12:34:24;;;;;;;6.40;1.47;;;10.80;99.90;;;;;;5054744;28;20028;-51
2023/12/30 12:36:50;;;;;;;3.77;1.33;;;11.00;99.90;;;;;;5054629;28;20033;-54
2023/12/30 12:39:17;;;;;;;7.97;1.90;;;11.20;99.90;;;;;;5054278;28;20086;-54
2023/12/30 12:41:42;;;;;;;6.53;1.23;;;11.30;99.90;;;;;;5054645;28;20052;-52
2023/12/30 12:44:08;;;;;;;5.13;1.33;;;11.20;99.90;;;;;;5054477;28;20049;-55
2023/12/30 12:46:34;;;;;;;5.07;1.20;;;11.20;99.90;;;;;;5054516;28;20032;-54
2023/12/30 12:48:59;;;;;;;8.37;1.53;;;11.20;99.90;;;;;;5054187;28;20262;-54